Time;durP1;ratioP1;P1;durP2;ratioP2;P2;SDS_P1;SDS_P2;PMS_P1;PMS_P2;Temp;Humidity;BMP_temperature;BMP_pressure;BME280_temperature;BME280_humidity;BME280_pressure;Samples;Min_cycle;Max_cycle;Signal;HPM_P1;HPM_P2
2024/01/13 00:02:04;;;;;;;6.83;6.13;;;;;;;18.98;42.93;98454.44;5054683;28;20201;-28
2024/01/13 00:04:31;;;;;;;6.33;5.73;;;;;;;18.97;43.03;98456.09;5054628;28;20238;-28
2024/01/13 00:06:58;;;;;;;7.37;6.67;;;;;;;19.00;42.90;98451.16;5055035;28;20208;-27
2024/01/13 00:09:24;;;;;;;6.30;5.70;;;;;;;18.93;42.71;98431.28;5055202;28;20860;-29
2024/01/13 00:11:51;;;;;;;6.67;6.00;;;;;;;18.93;42.68;98428.72;5054342;28;20637;-26
2024/01/13 00:14:18;;;;;;;6.30;5.70;;;;;;;19.05;42.64;98441.22;5054877;28;20221;-27
2024/01/13 00:16:44;;;;;;;6.57;5.97;;;;;;;19.05;42.66;98439.56;5054711;28;20200;-27
2024/01/13 00:19:11;;;;;;;6.80;6.10;;;;;;;19.05;42.70;98439.56;5054754;28;20700;-28
2024/01/13 00:21:38;;;;;;;6.23;5.63;;;;;;;19.08;42.56;98447.38;5054523;28;20201;-27
2024/01/13 00:24:04;;;;;;;5.90;5.30;;;;;;;19.08;42.70;98449.03;5054481;28;20193;-28
2024/01/13 00:26:31;;;;;;;6.20;5.60;;;;;;;19.10;42.58;98457.63;5054047;28;20203;-29
2024/01/13 00:28:58;;;;;;;7.33;6.47;;;;;;;19.09;43.07;98458.41;5054690;28;20216;-27
2024/01/13 00:31:24;;;;;;;6.00;5.40;;;;;;;19.07;42.70;98465.97;5054825;28;20225;-27
2024/01/13 00:33:51;;;;;;;6.23;5.63;;;;;;;19.02;43.05;98453.81;5054409;28;20832;-27
2024/01/13 00:36:18;;;;;;;6.00;5.33;;;;;;;18.99;42.84;98461.28;5054093;28;20232;-31
2024/01/13 00:38:44;;;;;;;5.67;5.17;;;;;;;18.98;42.83;98460.38;5052361;28;20257;-27
2024/01/13 00:41:11;;;;;;;6.97;6.10;;;;;;;18.97;43.03;98460.31;5054784;28;20247;-27
2024/01/13 00:43:38;;;;;;;6.57;5.87;;;;;;;18.97;42.87;98451.00;5054060;28;20197;-28
2024/01/13 00:46:05;;;;;;;6.20;5.60;;;;;;;18.99;43.30;98449.44;5054320;28;20617;-26
2024/01/13 00:48:32;;;;;;;6.30;5.70;;;;;;;19.02;42.65;98457.22;5053274;28;20217;-26
2024/01/13 00:51:08;;;;;;;6.50;5.90;;;;;;;19.02;42.53;98453.81;5054347;28;20288;-27
2024/01/13 00:53:35;;;;;;;6.13;5.53;;;;;;;19.03;42.65;98451.34;5053958;28;20243;-26
2024/01/13 00:56:03;;;;;;;5.93;5.30;;;;;;;19.05;42.46;98454.84;5054116;28;20196;-28
2024/01/13 00:58:29;;;;;;;6.00;5.40;;;;;;;19.09;42.52;98460.97;5054311;28;20213;-26
2024/01/13 01:01:09;;;;;;;6.67;5.97;;;;;;;19.09;42.19;98466.06;5050940;28;20295;-27
2024/01/13 01:03:36;;;;;;;6.20;5.60;;;;;;;19.10;42.54;98460.19;5053410;28;20687;-26
2024/01/13 01:06:04;;;;;;;6.43;5.73;;;;;;;19.12;42.48;98456.03;5046239;28;20212;-35
2024/01/13 01:08:31;;;;;;;6.00;5.40;;;;;;;19.11;42.81;98445.00;5052872;28;20220;-35
2024/01/13 01:11:06;;;;;;;6.43;5.77;;;;;;;19.04;42.62;98445.44;5053614;28;20250;-28
2024/01/13 01:13:33;;;;;;;6.17;5.57;;;;;;;19.02;42.61;98446.16;5053234;28;20220;-27
2024/01/13 01:15:59;;;;;;;5.87;5.27;;;;;;;18.99;42.64;98444.34;5053227;28;20205;-29
2024/01/13 01:18:26;;;;;;;5.70;5.10;;;;;;;18.97;42.93;98438.25;5053709;28;20547;-26
2024/01/13 01:21:09;;;;;;;5.37;4.87;;;;;;;18.96;42.83;98433.09;5053829;28;20197;-26
2024/01/13 01:23:36;;;;;;;5.83;5.23;;;;;;;19.02;42.54;98435.97;5053302;28;20259;-32
2024/01/13 01:26:03;;;;;;;5.97;5.37;;;;;;;19.03;42.33;98435.16;5053546;28;20197;-27
2024/01/13 01:28:29;;;;;;;5.90;5.40;;;;;;;19.05;42.44;98431.03;5053475;28;20217;-26
2024/01/13 01:31:05;;;;;;;6.00;5.40;;;;;;;19.05;42.33;98431.03;5053866;28;20193;-26
2024/01/13 01:33:32;;;;;;;6.30;5.47;;;;;;;19.07;42.77;98439.66;5053643;28;20197;-28
2024/01/13 01:36:00;;;;;;;5.23;4.73;;;;;;;19.08;42.70;98446.47;5053271;28;20197;-26
2024/01/13 01:38:26;;;;;;;5.73;5.13;;;;;;;19.10;43.00;98447.44;5044322;28;20221;-27
2024/01/13 01:41:07;;;;;;;6.03;5.43;;;;;;;19.10;42.71;98447.44;5048815;28;20219;-27
2024/01/13 01:43:34;;;;;;;5.87;5.33;;;;;;;19.12;42.59;98440.75;5053203;28;20209;-29
2024/01/13 01:46:01;;;;;;;5.53;5.03;;;;;;;19.13;42.62;98439.97;5041978;28;20201;-32
2024/01/13 01:48:33;;;;;;;6.03;5.43;;;;;;;19.07;42.77;98437.94;5042283;28;20213;-26
2024/01/13 01:51:06;;;;;;;5.60;5.10;;;;;;;19.02;42.87;98423.22;5041857;28;20196;-27
2024/01/13 01:53:34;;;;;;;5.07;4.57;;;;;;;18.99;43.00;98423.94;5041093;28;20698;-29
2024/01/13 01:56:03;;;;;;;5.60;5.03;;;;;;;18.98;42.95;98421.31;5035727;28;20203;-27
2024/01/13 01:58:30;;;;;;;4.57;4.17;;;;;;;18.96;42.97;98417.81;5043273;28;20221;-28
2024/01/13 02:01:01;;;;;;;5.57;5.07;;;;;;;18.99;42.54;98425.63;5048935;28;20202;-27
2024/01/13 02:03:28;;;;;;;5.30;4.80;;;;;;;19.02;42.69;98431.75;5049623;28;20610;-27
2024/01/13 02:05:55;;;;;;;5.07;4.57;;;;;;;19.01;42.79;98421.50;5042706;28;20197;-26
2024/01/13 02:08:21;;;;;;;5.37;4.87;;;;;;;19.05;42.84;98424.28;5049592;28;20615;-26
2024/01/13 02:11:03;;;;;;;5.30;4.63;;;;;;;19.07;42.71;98425.22;5040246;28;20252;-29
2024/01/13 02:13:30;;;;;;;5.20;4.70;;;;;;;19.08;42.37;98423.56;5040260;28;20197;-28
2024/01/13 02:15:57;;;;;;;5.77;5.20;;;;;;;19.10;42.59;98416.88;5052328;28;20282;-27
2024/01/13 02:18:23;;;;;;;5.23;4.73;;;;;;;19.09;42.79;98415.09;5045872;28;20225;-26
2024/01/13 02:21:04;;;;;;;5.10;4.60;;;;;;;19.10;42.86;98410.09;5044259;28;20280;-30
2024/01/13 02:23:31;;;;;;;5.83;5.23;;;;;;;19.12;42.62;98408.50;5043518;28;20648;-28
2024/01/13 02:25:58;;;;;;;5.40;4.90;;;;;;;19.09;42.71;98392.19;5043918;28;20208;-27
2024/01/13 02:28:24;;;;;;;5.00;4.60;;;;;;;19.02;42.81;98391.00;5040397;28;20201;-27
2024/01/13 02:31:08;;;;;;;5.13;4.63;;;;;;;18.99;42.94;98385.75;5042927;28;20201;-27
2024/01/13 02:33:35;;;;;;;4.90;4.50;;;;;;;18.98;42.84;98378.88;5037064;28;20202;-28
2024/01/13 02:36:02;;;;;;;5.17;4.67;;;;;;;18.97;42.94;98376.25;5040812;28;20204;-26
2024/01/13 02:38:28;;;;;;;5.23;4.73;;;;;;;18.99;42.88;98380.66;5036242;28;20264;-26
2024/01/13 02:41:03;;;;;;;5.13;4.63;;;;;;;19.02;42.87;98373.16;5041600;28;21141;-28
2024/01/13 02:43:30;;;;;;;5.23;4.73;;;;;;;19.04;42.54;98373.25;5040676;28;20213;-27
2024/01/13 02:45:57;;;;;;;5.07;4.57;;;;;;;19.05;42.93;98363.13;5039014;28;20676;-26
2024/01/13 02:48:23;;;;;;;4.97;4.47;;;;;;;19.06;42.79;98369.09;5050501;28;20203;-33
2024/01/13 02:51:03;;;;;;;4.83;4.37;;;;;;;19.07;42.75;98370.84;5042839;28;20225;-29
2024/01/13 02:53:30;;;;;;;5.13;4.63;;;;;;;19.09;42.86;98371.78;5045352;28;20743;-27
2024/01/13 02:55:57;;;;;;;5.40;4.90;;;;;;;19.08;42.64;98376.03;5037859;28;20703;-27
2024/01/13 02:58:23;;;;;;;5.30;4.80;;;;;;;19.11;42.61;98367.66;5044794;28;20221;-26
2024/01/13 03:01:07;;;;;;;4.50;4.10;;;;;;;19.11;42.80;98360.91;5041143;28;20205;-27
2024/01/13 03:03:34;;;;;;;4.70;4.30;;;;;;;19.12;42.73;98355.00;5051920;28;20232;-26
2024/01/13 03:06:03;;;;;;;4.83;4.43;;;;;;;19.06;42.68;98353.78;5035543;28;20203;-27
2024/01/13 03:08:30;;;;;;;4.50;4.10;;;;;;;19.01;43.16;98347.59;5050668;28;20220;-28
2024/01/13 03:11:06;;;;;;;4.67;4.27;;;;;;;18.99;42.98;98346.63;5041312;28;20212;-29
2024/01/13 03:13:33;;;;;;;4.90;4.40;;;;;;;18.98;43.08;98345.75;5040854;28;20725;-26
2024/01/13 03:16:00;;;;;;;4.90;4.40;;;;;;;18.99;43.02;98349.19;5046656;28;20224;-26
2024/01/13 03:18:26;;;;;;;4.67;4.27;;;;;;;19.01;42.57;98345.91;5045197;28;20231;-27
2024/01/13 03:21:05;;;;;;;5.03;4.53;;;;;;;19.03;42.86;98340.91;5036565;28;20200;-29
2024/01/13 03:23:32;;;;;;;5.00;4.50;;;;;;;19.04;42.87;98333.34;5044626;28;20207;-26
2024/01/13 03:25:58;;;;;;;5.03;4.53;;;;;;;19.06;42.60;98325.78;5049852;28;20619;-27
2024/01/13 03:28:25;;;;;;;4.60;4.20;;;;;;;18.98;42.57;98307.53;5042925;28;20617;-30
2024/01/13 03:31:05;;;;;;;5.00;4.53;;;;;;;19.09;42.66;98320.84;5045910;28;20204;-33
2024/01/13 03:33:32;;;;;;;4.87;4.47;;;;;;;19.10;42.71;98320.06;5051557;28;20200;-26
2024/01/13 03:35:59;;;;;;;5.07;4.57;;;;;;;19.10;42.79;98320.06;5043802;28;20308;-26
2024/01/13 03:38:27;;;;;;;4.83;3.83;;;;;;;19.01;42.51;98297.50;5035982;28;20650;-28
2024/01/13 03:41:06;;;;;;;4.83;4.43;;;;;;;19.03;42.74;98303.56;5039896;28;20625;-28
2024/01/13 03:43:33;;;;;;;5.07;4.57;;;;;;;19.06;42.86;98320.69;5039319;28;20769;-27
2024/01/13 03:45:59;;;;;;;5.37;4.87;;;;;;;19.02;42.74;98318.78;5049097;28;20749;-26
2024/01/13 03:48:26;;;;;;;4.80;4.30;;;;;;;19.00;42.67;98321.25;5051311;28;20572;-30
2024/01/13 03:50:53;;;;;;;4.73;4.23;;;;;;;18.96;43.09;98309.16;5040941;28;20578;-28
2024/01/13 03:53:20;;;;;;;4.53;4.13;;;;;;;18.97;42.94;98312.56;5041650;28;20289;-26
2024/01/13 03:55:47;;;;;;;5.10;4.60;;;;;;;19.00;43.11;98311.06;5036516;28;20249;-27
2024/01/13 03:58:13;;;;;;;5.23;4.67;;;;;;;19.04;42.70;98312.09;5040351;28;20210;-27
2024/01/13 04:00:40;;;;;;;5.10;4.60;;;;;;;19.06;42.70;98310.50;5040080;28;20202;-26
2024/01/13 04:03:07;;;;;;;4.97;4.50;;;;;;;19.05;42.51;98312.19;5048330;28;20263;-28
2024/01/13 04:05:34;;;;;;;4.67;4.27;;;;;;;19.07;42.76;98312.25;5040833;28;20313;-27
2024/01/13 04:08:01;;;;;;;5.00;4.50;;;;;;;19.09;42.68;98311.53;5045199;28;20247;-27
2024/01/13 04:10:27;;;;;;;4.77;4.37;;;;;;;19.10;42.80;98307.31;5039292;28;20272;-27
2024/01/13 04:12:55;;;;;;;4.63;4.23;;;;;;;19.09;42.91;98303.88;5036664;28;20251;-27
2024/01/13 04:15:22;;;;;;;4.97;4.47;;;;;;;19.11;42.64;98299.75;5040842;28;20221;-26
2024/01/13 04:17:49;;;;;;;4.67;4.20;;;;;;;19.12;42.62;98304.03;5043714;28;20229;-28
2024/01/13 04:20:16;;;;;;;4.73;4.33;;;;;;;19.04;42.55;98287.47;5034329;28;20687;-27
2024/01/13 04:22:43;;;;;;;4.33;3.93;;;;;;;19.07;42.66;98302.06;5051711;28;20197;-27
2024/01/13 04:25:09;;;;;;;5.27;4.73;;;;;;;19.02;42.95;98304.38;5038154;28;20297;-30
2024/01/13 04:27:36;;;;;;;4.50;4.10;;;;;;;19.00;42.84;98300.88;5044108;28;20251;-27
2024/01/13 04:30:03;;;;;;;4.43;4.03;;;;;;;18.99;43.00;98298.25;5046977;28;20221;-27
2024/01/13 04:32:30;;;;;;;4.80;4.40;;;;;;;18.98;42.95;98310.09;5041451;28;20205;-31
2024/01/13 04:34:57;;;;;;;4.87;4.37;;;;;;;19.00;42.82;98303.41;5044838;28;20222;-27
2024/01/13 04:37:23;;;;;;;4.50;4.10;;;;;;;19.02;42.81;98301.84;5043312;28;20233;-26
2024/01/13 04:39:50;;;;;;;4.60;4.20;;;;;;;19.05;42.87;98301.09;5053300;28;20667;-29
2024/01/13 04:42:16;;;;;;;5.27;4.77;;;;;;;19.06;42.75;98298.63;5036046;28;20237;-27
2024/01/13 04:44:43;;;;;;;4.57;4.17;;;;;;;19.02;42.61;98290.75;5054168;28;20579;-26
2024/01/13 04:47:10;;;;;;;4.50;4.10;;;;;;;19.06;42.83;98280.81;5042758;28;20193;-26
2024/01/13 04:49:36;;;;;;;4.77;4.33;;;;;;;19.11;42.72;98293.78;5043121;28;20239;-31
2024/01/13 04:52:03;;;;;;;4.73;4.33;;;;;;;19.12;42.66;98290.41;5044791;28;20248;-27
2024/01/13 04:54:30;;;;;;;4.43;4.03;;;;;;;19.12;42.70;98285.31;5039232;28;20612;-27
2024/01/13 04:56:56;;;;;;;4.37;3.97;;;;;;;19.14;42.85;98287.16;5046034;28;20251;-26
2024/01/13 04:59:23;;;;;;;4.80;4.40;;;;;;;19.01;42.71;98268.63;5040117;28;20217;-28
2024/01/13 05:01:50;;;;;;;4.13;3.83;;;;;;;19.05;42.96;98283.28;5053442;28;20663;-27
2024/01/13 05:04:16;;;;;;;4.50;4.10;;;;;;;19.01;42.99;98282.22;5043018;28;20213;-26
2024/01/13 05:06:44;;;;;;;4.40;4.00;;;;;;;19.00;43.29;98279.59;5044041;28;20279;-30
2024/01/13 05:09:11;;;;;;;3.90;3.60;;;;;;;18.96;42.83;98268.41;5043780;28;20234;-26
2024/01/13 05:11:38;;;;;;;4.33;3.93;;;;;;;18.99;42.81;98268.56;5051340;28;20288;-27
2024/01/13 05:14:04;;;;;;;4.93;4.43;;;;;;;19.03;42.77;98265.38;5041442;28;20279;-28
2024/01/13 05:16:31;;;;;;;4.60;4.20;;;;;;;19.05;42.94;98256.13;5052715;28;20224;-26
2024/01/13 05:18:58;;;;;;;4.80;4.40;;;;;;;19.04;42.78;98249.28;5049066;28;20217;-31
2024/01/13 05:21:24;;;;;;;3.90;3.60;;;;;;;19.08;42.38;98260.50;5040949;28;20247;-26
2024/01/13 05:23:51;;;;;;;4.23;3.83;;;;;;;19.09;42.72;98255.47;5043839;28;20244;-26
2024/01/13 05:26:18;;;;;;;4.30;3.90;;;;;;;19.11;43.21;98259.00;5039963;28;20189;-27
2024/01/13 05:28:44;;;;;;;4.47;4.07;;;;;;;19.12;42.65;98250.53;5041710;28;20272;-28
2024/01/13 05:31:11;;;;;;;4.67;4.10;;;;;;;19.12;42.63;98249.66;5046459;28;20572;-26
2024/01/13 05:33:37;;;;;;;4.00;3.67;;;;;;;19.13;43.21;98259.91;5040118;28;20206;-27
2024/01/13 05:36:04;;;;;;;4.37;3.97;;;;;;;19.15;42.61;98244.72;5042852;28;20224;-29
2024/01/13 05:38:31;;;;;;;3.93;3.63;;;;;;;19.10;42.81;98241.09;5051322;28;20703;-27
2024/01/13 05:40:58;;;;;;;4.47;4.07;;;;;;;19.02;42.86;98239.81;5039827;28;20573;-26
2024/01/13 05:43:24;;;;;;;4.37;3.97;;;;;;;19.03;42.96;98246.66;5041325;28;20214;-26
2024/01/13 05:45:51;;;;;;;4.43;4.03;;;;;;;19.00;42.82;98249.03;5042027;28;20676;-29
2024/01/13 05:48:18;;;;;;;4.17;3.77;;;;;;;18.99;42.83;98247.28;5048659;28;20274;-28
2024/01/13 05:50:45;;;;;;;4.40;4.00;;;;;;;19.01;42.39;98255.91;5050878;28;20224;-26
2024/01/13 05:53:11;;;;;;;4.03;3.73;;;;;;;19.03;42.72;98246.66;5038977;28;20708;-28
2024/01/13 05:55:38;;;;;;;4.37;3.97;;;;;;;19.05;42.48;98250.16;5039876;28;20225;-27
2024/01/13 05:58:05;;;;;;;4.17;3.77;;;;;;;19.07;42.42;98251.13;5045573;28;20231;-26
2024/01/13 06:00:32;;;;;;;4.33;3.93;;;;;;;19.06;42.72;98245.13;5052971;28;20232;-28
2024/01/13 06:02:59;;;;;;;4.03;3.63;;;;;;;19.02;42.71;98238.16;5052562;28;20557;-27
2024/01/13 06:05:26;;;;;;;4.27;3.87;;;;;;;19.08;42.64;98258.84;5037605;28;20202;-29
2024/01/13 06:07:53;;;;;;;4.33;3.93;;;;;;;19.10;42.68;98264.88;5047083;28;20225;-27
2024/01/13 06:10:19;;;;;;;4.23;3.83;;;;;;;19.11;42.63;98260.66;5038214;28;20228;-26
2024/01/13 06:12:46;;;;;;;4.43;4.03;;;;;;;19.13;42.44;98262.47;5041070;28;20202;-28
2024/01/13 06:15:12;;;;;;;3.73;3.43;;;;;;;19.14;42.52;98260.81;5047362;28;20259;-26
2024/01/13 06:17:39;;;;;;;4.60;4.07;;;;;;;19.07;42.67;98271.50;5041447;28;20202;-27
2024/01/13 06:20:08;;;;;;;4.47;4.07;;;;;;;19.03;42.77;98259.38;5048885;28;20251;-35
2024/01/13 06:22:35;;;;;;;3.73;3.43;;;;;;;19.00;42.79;98256.69;5047556;28;20209;-27
2024/01/13 06:25:02;;;;;;;4.30;3.90;;;;;;;19.00;42.93;98254.13;5044097;28;20282;-26
2024/01/13 06:27:28;;;;;;;4.53;4.13;;;;;;;18.98;42.75;98248.97;5041459;28;20205;-26
2024/01/13 06:29:55;;;;;;;4.33;3.93;;;;;;;19.01;42.53;98249.13;5035390;28;20292;-27
2024/01/13 06:32:22;;;;;;;4.30;3.90;;;;;;;19.04;42.44;98233.97;5039384;28;20208;-27
2024/01/13 06:34:49;;;;;;;4.40;4.00;;;;;;;19.06;42.48;98226.41;5040134;28;20201;-28
2024/01/13 06:37:15;;;;;;;4.23;3.83;;;;;;;19.07;42.68;98213.75;5049075;28;20205;-29
2024/01/13 06:39:42;;;;;;;4.60;4.20;;;;;;;19.08;42.73;98207.88;5045516;28;20268;-26
2024/01/13 06:42:08;;;;;;;4.20;3.80;;;;;;;19.10;42.74;98202.88;5052342;28;20205;-26
2024/01/13 06:44:35;;;;;;;4.13;3.73;;;;;;;19.10;41.88;98203.72;5040516;28;20206;-26
2024/01/13 06:47:09;;;;;;;4.20;3.80;;;;;;;19.09;42.99;98201.09;5039484;28;20671;-31
2024/01/13 06:49:36;;;;;;;4.27;3.87;;;;;;;19.11;42.57;98199.50;5042196;28;20748;-27
2024/01/13 06:52:04;;;;;;;4.27;3.87;;;;;;;19.12;42.56;98193.59;5046359;28;20232;-26
2024/01/13 06:54:30;;;;;;;4.30;3.90;;;;;;;19.10;42.56;98190.97;5040591;28;20235;-27
2024/01/13 06:56:57;;;;;;;4.20;3.80;;;;;;;19.04;42.52;98190.69;5045516;28;20225;-27
2024/01/13 06:59:24;;;;;;;3.70;3.40;;;;;;;19.01;42.81;98194.75;5036382;28;20221;-28
2024/01/13 07:01:50;;;;;;;3.67;3.37;;;;;;;18.99;42.77;98189.59;5044126;28;20229;-28
2024/01/13 07:04:17;;;;;;;3.93;3.60;;;;;;;18.98;43.01;98192.91;5051999;28;20204;-27
2024/01/13 07:06:45;;;;;;;4.40;4.00;;;;;;;18.98;42.63;98187.81;5047022;28;20612;-27
2024/01/13 07:09:12;;;;;;;4.20;3.80;;;;;;;19.01;42.72;98193.06;5034459;28;20643;-27
2024/01/13 07:11:38;;;;;;;4.10;3.70;;;;;;;19.03;43.01;98198.25;5040238;28;20208;-29
2024/01/13 07:14:05;;;;;;;4.33;3.90;;;;;;;19.04;42.64;98193.22;5041735;28;20207;-27
2024/01/13 07:16:32;;;;;;;4.97;4.07;;;;;;;19.05;42.63;98199.22;5032110;28;20228;-26
2024/01/13 07:18:59;;;;;;;4.20;3.80;;;;;;;19.07;42.68;98205.25;5040980;28;20213;-29
2024/01/13 07:21:26;;;;;;;3.83;3.53;;;;;;;19.07;42.71;98213.75;5043086;28;20197;-26
2024/01/13 07:23:53;;;;;;;3.77;3.47;;;;;;;19.08;42.94;98217.19;5047691;28;20248;-29
2024/01/13 07:26:20;;;;;;;4.30;3.90;;;;;;;19.10;43.15;98220.69;5041903;28;20221;-27
2024/01/13 07:28:46;;;;;;;4.03;3.63;;;;;;;19.11;42.39;98217.34;5043224;28;20221;-26
2024/01/13 07:31:13;;;;;;;4.00;3.60;;;;;;;19.14;42.47;98222.59;5041467;28;20669;-31
2024/01/13 07:33:40;;;;;;;4.10;3.70;;;;;;;19.07;42.49;98230.72;5040187;28;20565;-26
2024/01/13 07:36:07;;;;;;;4.00;3.60;;;;;;;19.02;42.64;98220.31;5047591;28;20300;-27
2024/01/13 07:38:34;;;;;;;4.43;4.03;;;;;;;18.99;42.70;98222.72;5051007;28;20583;-27
2024/01/13 07:41:00;;;;;;;4.43;4.03;;;;;;;18.99;43.07;98219.28;5039868;28;20260;-26
2024/01/13 07:43:27;;;;;;;4.23;3.83;;;;;;;18.98;43.03;98225.19;5048242;28;20200;-27
2024/01/13 07:45:54;;;;;;;4.40;4.00;;;;;;;18.99;42.54;98227.81;5042481;28;20216;-35
2024/01/13 07:48:20;;;;;;;4.30;3.90;;;;;;;19.04;42.56;98235.69;5043814;28;20207;-27
2024/01/13 07:50:47;;;;;;;4.20;3.80;;;;;;;19.05;42.58;98232.31;5038570;28;20197;-26
2024/01/13 07:53:14;;;;;;;4.30;3.90;;;;;;;19.06;42.74;98228.97;5048310;28;20448;-26
2024/01/13 07:55:41;;;;;;;4.47;4.03;;;;;;;19.07;42.74;98220.53;5038523;28;20620;-28
2024/01/13 07:58:07;;;;;;;4.30;3.90;;;;;;;19.08;42.70;98227.38;5051819;28;20276;-26
2024/01/13 08:00:34;;;;;;;4.77;4.10;;;;;;;19.09;43.25;98224.91;5055363;28;20204;-26
2024/01/13 08:03:01;;;;;;;4.70;4.27;;;;;;;19.10;42.44;98218.16;5046821;28;20201;-26
2024/01/13 08:05:27;;;;;;;4.03;3.70;;;;;;;19.12;42.59;98224.19;5045719;28;20200;-27
2024/01/13 08:07:58;;;;;;;4.00;3.70;;;;;;;19.14;42.65;98213.28;5041261;28;20201;-26
2024/01/13 08:10:24;;;;;;;4.17;3.87;;;;;;;19.15;42.23;98203.94;5042461;28;20360;-26
2024/01/13 08:12:51;;;;;;;3.93;3.63;;;;;;;19.07;42.56;98193.38;5047528;28;20255;-28
2024/01/13 08:15:18;;;;;;;4.10;3.70;;;;;;;19.03;42.67;98196.59;5053215;28;20197;-28
2024/01/13 08:17:44;;;;;;;3.70;3.40;;;;;;;19.01;42.87;98192.22;5038940;28;20556;-26
2024/01/13 08:20:13;;;;;;;3.83;3.43;;;;;;;19.00;42.90;98182.81;5040909;28;20217;-35
2024/01/13 08:22:40;;;;;;;3.73;3.43;;;;;;;18.98;43.00;98172.53;5045890;28;20763;-26
2024/01/13 08:25:07;;;;;;;4.40;4.00;;;;;;;19.01;42.43;98172.69;5049653;28;20621;-27
2024/01/13 08:27:34;;;;;;;4.33;3.93;;;;;;;19.05;42.50;98171.19;5053845;28;20718;-27
2024/01/13 08:30:00;;;;;;;4.80;3.97;;;;;;;19.05;42.48;98171.19;5044958;28;20696;-27
2024/01/13 08:32:27;;;;;;;4.20;3.80;;;;;;;19.07;42.52;98154.31;5051134;28;20280;-26
2024/01/13 08:34:54;;;;;;;4.30;3.90;;;;;;;19.08;42.57;98150.94;5050087;28;20193;-27
2024/01/13 08:37:21;;;;;;;4.30;3.90;;;;;;;19.09;42.37;98155.25;5044210;28;20218;-27
2024/01/13 08:39:47;;;;;;;4.63;4.23;;;;;;;19.10;42.47;98151.91;5041224;28;20233;-27
2024/01/13 08:42:14;;;;;;;4.23;3.80;;;;;;;19.09;42.64;98163.75;5044036;28;20664;-28
2024/01/13 08:44:41;;;;;;;4.40;4.00;;;;;;;19.10;42.10;98159.56;5047632;28;20749;-27
2024/01/13 08:47:09;;;;;;;4.43;4.00;;;;;;;19.12;42.39;98163.91;5054401;28;20267;-27
2024/01/13 08:49:36;;;;;;;4.50;4.00;;;;;;;19.11;42.17;98158.75;5045224;28;20224;-27
2024/01/13 08:52:03;;;;;;;4.50;4.07;;;;;;;19.05;42.72;98158.44;5038193;28;20213;-27
2024/01/13 08:54:30;;;;;;;4.53;3.93;;;;;;;19.01;42.70;98177.78;5048784;28;20247;-26
2024/01/13 08:56:57;;;;;;;4.20;3.80;;;;;;;19.00;42.62;98188.78;5042322;28;20217;-35
2024/01/13 08:59:24;;;;;;;4.30;3.90;;;;;;;18.99;42.81;98191.25;5053737;28;20221;-27
2024/01/13 09:01:50;;;;;;;4.00;3.60;;;;;;;18.99;42.90;98191.25;5044072;28;20197;-26
2024/01/13 09:04:18;;;;;;;4.37;3.97;;;;;;;19.03;42.67;98193.16;5039355;28;20285;-26
2024/01/13 09:06:45;;;;;;;5.10;4.30;;;;;;;19.04;42.72;98197.47;5050203;28;20235;-26
2024/01/13 09:09:12;;;;;;;4.97;4.13;;;;;;;19.06;42.62;98183.13;5048600;28;20213;-28
2024/01/13 09:11:41;;;;;;;4.60;4.17;;;;;;;19.06;42.63;98178.91;5052136;28;20578;-27
2024/01/13 09:14:10;;;;;;;4.33;3.93;;;;;;;19.09;42.74;98180.72;5053940;28;20208;-26
2024/01/13 09:16:38;;;;;;;5.00;4.07;;;;;;;19.07;42.50;98178.09;5038055;28;20596;-27
2024/01/13 09:19:05;;;;;;;5.07;4.57;;;;;;;19.10;42.85;98172.28;5044195;28;20254;-26
2024/01/13 09:21:33;;;;;;;4.10;3.70;;;;;;;19.02;42.30;98151.53;5037002;28;20646;-28
2024/01/13 09:24:08;;;;;;;4.63;3.83;;;;;;;19.12;42.58;98168.13;5049549;28;20287;-28
2024/01/13 09:26:43;;;;;;;4.93;4.53;;;;;;;19.11;42.59;98163.84;5053611;28;20664;-28
2024/01/13 09:29:14;;;;;;;4.10;3.70;;;;;;;19.09;42.82;98173.06;5042460;28;20707;-27
2024/01/13 09:31:40;;;;;;;4.67;4.17;;;;;;;19.04;42.69;98172.84;5051116;28;20219;-27
2024/01/13 09:34:08;;;;;;;4.53;4.13;;;;;;;19.01;42.81;98166.75;5045830;28;20202;-27
2024/01/13 09:36:38;;;;;;;4.00;3.60;;;;;;;18.99;43.11;98166.66;5044277;28;20221;-27
2024/01/13 09:39:04;;;;;;;4.37;3.97;;;;;;;18.98;42.98;98170.00;5053260;28;20229;-29
2024/01/13 09:41:31;;;;;;;4.90;4.40;;;;;;;19.00;42.97;98186.25;5044125;28;20201;-27
2024/01/13 09:44:08;;;;;;;5.00;4.30;;;;;;;19.03;42.60;98188.94;5034028;28;20197;-28
2024/01/13 09:46:35;;;;;;;5.07;4.57;;;;;;;19.03;42.70;98172.78;5041547;28;20678;-28
2024/01/13 09:49:01;;;;;;;4.47;4.07;;;;;;;19.07;42.59;98169.59;5061485;28;20304;-26
2024/01/13 09:51:28;;;;;;;5.10;4.60;;;;;;;19.03;42.50;98155.81;5048573;28;20224;-26
2024/01/13 09:54:11;;;;;;;4.90;4.40;;;;;;;19.09;42.78;98165.44;5059477;28;20250;-30
2024/01/13 09:56:47;;;;;;;4.50;4.10;;;;;;;19.09;42.69;98176.50;5048571;28;20220;-27
2024/01/13 09:59:14;;;;;;;4.87;4.37;;;;;;;19.10;42.74;98160.41;5051960;28;20235;-28
2024/01/13 10:01:41;;;;;;;4.57;4.17;;;;;;;19.10;42.55;98155.31;5047804;28;20200;-27
2024/01/13 10:04:08;;;;;;;5.27;4.73;;;;;;;19.12;42.62;98158.81;5044672;28;20201;-28
2024/01/13 10:06:35;;;;;;;4.60;4.10;;;;;;;19.10;42.63;98151.91;5065263;28;20251;-27
2024/01/13 10:09:02;;;;;;;4.40;4.00;;;;;;;19.04;42.85;98162.66;5044758;28;20220;-29
2024/01/13 10:11:48;;;;;;;4.70;4.17;;;;;;;18.94;42.59;98145.19;5044629;28;20290;-30
2024/01/13 10:14:15;;;;;;;4.80;4.30;;;;;;;19.00;43.07;98154.78;5045102;28;20295;-27
2024/01/13 10:16:41;;;;;;;4.97;4.13;;;;;;;18.98;43.12;98154.72;5036939;28;20221;-26
2024/01/13 10:19:08;;;;;;;5.50;4.83;;;;;;;19.00;42.88;98140.38;5044328;28;20220;-26
2024/01/13 10:21:38;;;;;;;5.10;4.60;;;;;;;19.03;42.55;98145.63;5045696;28;20246;-27
2024/01/13 10:24:06;;;;;;;6.33;4.90;;;;;;;19.03;42.65;98126.91;5051102;28;20571;-26
2024/01/13 10:26:33;;;;;;;5.43;4.93;;;;;;;19.06;42.87;98125.41;5036736;28;20226;-27
2024/01/13 10:28:59;;;;;;;5.17;4.60;;;;;;;19.08;42.23;98115.28;5038201;28;20221;-27
2024/01/13 10:31:26;;;;;;;5.20;4.70;;;;;;;19.09;42.69;98099.19;5044623;28;20202;-26
2024/01/13 10:34:03;;;;;;;5.43;4.87;;;;;;;18.99;42.70;98080.06;5045373;28;20603;-29
2024/01/13 10:36:30;;;;;;;6.40;5.13;;;;;;;19.11;42.54;98089.97;5034303;28;20225;-27
2024/01/13 10:38:58;;;;;;;5.13;4.60;;;;;;;19.13;42.52;98083.28;5037028;28;20698;-28
2024/01/13 10:41:28;;;;;;;5.90;5.10;;;;;;;19.14;42.69;98082.47;5051781;28;20206;-27
2024/01/13 10:43:58;;;;;;;5.57;4.67;;;;;;;19.11;42.38;98078.09;5046993;28;20209;-28
2024/01/13 10:46:26;;;;;;;5.43;4.70;;;;;;;19.07;42.52;98072.78;5042305;28;20201;-26
2024/01/13 10:49:24;;;;;;;5.80;4.83;;;;;;;19.03;42.89;98084.50;5043450;28;20225;-26
2024/01/13 10:51:56;;;;;;;5.93;5.20;;;;;;;19.01;42.86;98080.16;5040335;28;20209;-27
2024/01/13 10:54:25;;;;;;;6.20;4.97;;;;;;;19.00;42.70;98075.81;5058958;28;20197;-27
2024/01/13 10:56:53;;;;;;;6.13;5.10;;;;;;;19.00;42.58;98070.72;5034373;28;20652;-26
2024/01/13 10:59:20;;;;;;;5.90;5.30;;;;;;;19.03;42.70;98070.88;5041528;28;20213;-27
2024/01/13 11:01:46;;;;;;;6.20;5.60;;;;;;;18.99;42.54;98063.91;5050171;28;20554;-27
2024/01/13 11:04:13;;;;;;;6.67;5.67;;;;;;;19.06;42.33;98073.56;5030487;28;20229;-27
2024/01/13 11:06:41;;;;;;;6.53;5.37;;;;;;;19.08;42.52;98084.72;5033132;28;20216;-27
2024/01/13 11:09:11;;;;;;;6.17;5.37;;;;;;;19.09;42.56;98076.25;5032844;28;20700;-26
2024/01/13 11:11:43;;;;;;;6.03;5.43;;;;;;;19.09;42.50;98078.81;5036269;28;20200;-27
2024/01/13 11:14:21;;;;;;;6.03;5.03;;;;;;;19.11;42.61;98067.91;5030609;28;20284;-29
2024/01/13 11:16:48;;;;;;;6.17;5.30;;;;;;;19.12;42.61;98056.91;5064378;28;20212;-26
2024/01/13 11:19:14;;;;;;;7.27;5.63;;;;;;;19.13;42.66;98045.91;5034118;28;20699;-26
2024/01/13 11:21:48;;;;;;;7.03;5.47;;;;;;;19.14;42.47;98041.69;5039094;28;20201;-28
2024/01/13 11:24:17;;;;;;;7.27;6.20;;;;;;;19.09;42.67;98032.94;5038471;28;20649;-29
2024/01/13 11:26:50;;;;;;;7.03;5.60;;;;;;;19.03;42.80;98014.84;5037208;28;20197;-27
2024/01/13 11:29:17;;;;;;;8.60;6.00;;;;;;;19.02;42.81;98003.78;5046116;28;20249;-28
2024/01/13 11:31:45;;;;;;;6.33;5.17;;;;;;;18.98;43.06;98001.88;5048816;28;20197;-26
2024/01/13 11:34:19;;;;;;;6.60;5.27;;;;;;;18.98;42.90;98019.72;5040585;28;20205;-29
2024/01/13 11:36:48;;;;;;;8.17;6.40;;;;;;;19.02;42.73;98023.28;5044245;28;20220;-32
2024/01/13 11:39:19;;;;;;;7.57;6.50;;;;;;;19.04;42.70;98011.50;5044752;28;20738;-28